createdAt,value
2024-01-12T00:00:19.600Z,1029.17
2024-01-12T00:01:23.681Z,1029.15
2024-01-12T00:02:27.892Z,1029.19
2024-01-12T00:03:31.941Z,1029.23
2024-01-12T00:04:36.353Z,1029.26
2024-01-12T00:05:40.543Z,1029.23
2024-01-12T00:06:44.837Z,1029.20
2024-01-12T00:07:48.604Z,1029.16
2024-01-12T00:08:52.925Z,1029.12
2024-01-12T00:09:56.949Z,1029.13
2024-01-12T00:11:01.179Z,1029.16
2024-01-12T00:12:05.314Z,1029.18
2024-01-12T00:13:09.406Z,1029.19
2024-01-12T00:14:13.633Z,1029.19
2024-01-12T00:15:17.740Z,1029.19
2024-01-12T00:17:49.010Z,1029.15
2024-01-12T00:18:53.257Z,1029.13
2024-01-12T00:19:57.160Z,1029.15
2024-01-12T00:21:01.397Z,1029.16
2024-01-12T00:22:05.511Z,1029.18
2024-01-12T00:23:09.666Z,1029.17
2024-01-12T00:24:13.809Z,1029.15
2024-01-12T00:25:17.986Z,1029.15
2024-01-12T00:26:22.207Z,1029.12
2024-01-12T00:27:26.258Z,1029.11
2024-01-12T00:28:30.430Z,1029.09
2024-01-12T00:29:34.613Z,1029.11
2024-01-12T00:30:38.777Z,1029.12
2024-01-12T00:31:42.849Z,1029.13
2024-01-12T00:32:47.062Z,1029.17
2024-01-12T00:33:51.224Z,1029.15
2024-01-12T00:34:55.351Z,1029.21
2024-01-12T00:35:59.513Z,1029.21
2024-01-12T00:37:03.645Z,1029.23
2024-01-12T00:38:07.782Z,1029.23
2024-01-12T00:39:11.942Z,1029.25
2024-01-12T00:40:16.142Z,1029.27
2024-01-12T00:41:20.227Z,1029.28
2024-01-12T00:42:24.403Z,1029.30
2024-01-12T00:43:28.509Z,1029.31
2024-01-12T00:44:32.655Z,1029.27
2024-01-12T00:45:36.799Z,1029.27
2024-01-12T00:46:40.892Z,1029.26
2024-01-12T00:47:45.234Z,1029.27
2024-01-12T00:48:49.405Z,1029.32
2024-01-12T00:49:53.369Z,1029.31
2024-01-12T00:50:57.749Z,1029.34
2024-01-12T00:52:01.733Z,1029.30
2024-01-12T00:53:05.904Z,1029.28
2024-01-12T00:54:10.081Z,1029.27
2024-01-12T00:55:14.199Z,1029.27
2024-01-12T00:56:18.390Z,1029.21
2024-01-12T00:57:22.533Z,1029.19
2024-01-12T00:58:26.734Z,1029.16
2024-01-12T00:59:30.758Z,1029.16
2024-01-12T01:00:35.005Z,1029.19
2024-01-12T01:01:39.292Z,1029.19
2024-01-12T01:02:43.359Z,1029.17
2024-01-12T01:03:47.518Z,1029.19
2024-01-12T01:04:51.534Z,1029.18
2024-01-12T01:05:55.874Z,1029.18
2024-01-12T01:07:00.012Z,1029.18
2024-01-12T01:08:04.095Z,1029.21
2024-01-12T01:09:08.241Z,1029.23
2024-01-12T01:10:12.361Z,1029.25
2024-01-12T01:11:16.691Z,1029.23
2024-01-12T01:12:20.689Z,1029.23
2024-01-12T01:13:24.871Z,1029.24
2024-01-12T01:14:29.084Z,1029.24
2024-01-12T01:15:33.134Z,1029.22
2024-01-12T01:16:37.321Z,1029.19
2024-01-12T01:17:41.523Z,1029.18
2024-01-12T01:18:45.813Z,1029.18
2024-01-12T01:19:49.711Z,1029.19
2024-01-12T01:20:53.873Z,1029.21
2024-01-12T01:21:58.224Z,1029.22
2024-01-12T01:23:02.276Z,1029.24
2024-01-12T01:24:06.411Z,1029.22
2024-01-12T01:25:10.540Z,1029.22
2024-01-12T01:26:14.835Z,1029.21
2024-01-12T01:27:18.840Z,1029.23
2024-01-12T01:28:23.148Z,1029.25
2024-01-12T01:29:27.292Z,1029.25
2024-01-12T01:30:31.539Z,1029.26
2024-01-12T01:31:35.686Z,1029.26
2024-01-12T01:32:39.920Z,1029.26
2024-01-12T01:33:44.096Z,1029.25
2024-01-12T01:34:51.292Z,1029.23
2024-01-12T01:35:54.463Z,1029.18
2024-01-12T01:36:58.532Z,1029.17
2024-01-12T01:38:02.691Z,1029.18
2024-01-12T01:39:06.901Z,1029.18
2024-01-12T01:40:11.008Z,1029.14
2024-01-12T01:41:15.265Z,1029.14
2024-01-12T01:42:19.357Z,1029.14
2024-01-12T01:43:23.525Z,1029.13
2024-01-12T01:44:27.675Z,1029.11
2024-01-12T01:45:31.777Z,1029.09
2024-01-12T01:46:36.008Z,1029.09
2024-01-12T01:47:54.229Z,1029.11
2024-01-12T01:48:57.281Z,1029.14
2024-01-12T01:50:01.405Z,1029.16
2024-01-12T01:51:05.538Z,1029.15
2024-01-12T01:52:09.669Z,1029.18
2024-01-12T01:53:13.846Z,1029.17
2024-01-12T01:54:17.985Z,1029.15
2024-01-12T01:55:22.185Z,1029.17
2024-01-12T01:56:26.387Z,1029.16
2024-01-12T01:57:30.426Z,1029.16
2024-01-12T01:58:34.633Z,1029.16
2024-01-12T01:59:38.838Z,1029.15
2024-01-12T02:00:42.901Z,1029.14
2024-01-12T02:01:47.117Z,1029.17
2024-01-12T02:02:51.386Z,1029.21
2024-01-12T02:03:55.541Z,1029.22
2024-01-12T02:04:59.568Z,1029.23
2024-01-12T02:06:03.965Z,1029.22
2024-01-12T02:07:07.964Z,1029.21
2024-01-12T02:08:12.201Z,1029.22
2024-01-12T02:09:16.225Z,1029.21
2024-01-12T02:10:20.290Z,1029.23
2024-01-12T02:11:24.531Z,1029.22
2024-01-12T02:12:28.576Z,1029.18
2024-01-12T02:13:32.808Z,1029.15
2024-01-12T02:14:40.002Z,1029.13
2024-01-12T02:15:43.181Z,1029.09
2024-01-12T02:16:47.322Z,1029.05
2024-01-12T02:17:51.655Z,1028.97
2024-01-12T02:18:55.516Z,1028.95
2024-01-12T02:19:59.660Z,1028.94
2024-01-12T02:21:03.964Z,1028.96
2024-01-12T02:22:07.936Z,1028.97
2024-01-12T02:23:12.086Z,1029.00
2024-01-12T02:24:16.106Z,1029.04
2024-01-12T02:25:20.222Z,1029.08
2024-01-12T02:26:24.504Z,1029.11
2024-01-12T02:27:28.575Z,1029.11
2024-01-12T02:28:32.868Z,1029.12
2024-01-12T02:29:37.136Z,1029.12
2024-01-12T02:30:41.266Z,1029.11
2024-01-12T02:31:45.513Z,1029.07
2024-01-12T02:33:03.907Z,1029.03
2024-01-12T02:34:06.684Z,1028.96
2024-01-12T02:35:10.673Z,1028.92
2024-01-12T02:36:14.827Z,1028.91
2024-01-12T02:37:18.973Z,1028.89
2024-01-12T02:38:23.108Z,1028.89
2024-01-12T02:39:27.353Z,1028.89
2024-01-12T02:40:31.502Z,1028.89
2024-01-12T02:41:35.600Z,1028.86
2024-01-12T02:42:39.761Z,1028.84
2024-01-12T02:43:43.943Z,1028.84
2024-01-12T02:45:02.249Z,1028.83
2024-01-12T02:46:04.754Z,1028.80
2024-01-12T02:47:08.942Z,1028.74
2024-01-12T02:48:13.304Z,1028.70
2024-01-12T02:49:17.253Z,1028.69
2024-01-12T02:50:21.506Z,1028.66
2024-01-12T02:51:25.576Z,1028.63
2024-01-12T02:52:29.785Z,1028.55
2024-01-12T02:53:34.002Z,1028.51
2024-01-12T02:54:38.056Z,1028.46
2024-01-12T02:55:45.299Z,1028.47
2024-01-12T02:56:48.647Z,1028.49
2024-01-12T02:57:52.780Z,1028.49
2024-01-12T02:58:56.770Z,1028.50
2024-01-12T03:00:04.376Z,1028.52
2024-01-12T03:01:05.178Z,1028.51
2024-01-12T03:02:09.249Z,1028.51
2024-01-12T03:03:13.457Z,1028.46
2024-01-12T03:04:17.680Z,1028.40
2024-01-12T03:05:35.915Z,1028.33
2024-01-12T03:06:39.074Z,1028.30
2024-01-12T03:07:42.989Z,1028.28
2024-01-12T03:08:47.070Z,1028.31
2024-01-12T03:09:51.310Z,1028.32
2024-01-12T03:10:55.429Z,1028.34
2024-01-12T03:11:59.733Z,1028.36
2024-01-12T03:13:03.719Z,1028.40
2024-01-12T03:14:07.940Z,1028.37
2024-01-12T03:15:12.072Z,1028.41
2024-01-12T03:16:16.245Z,1028.40
2024-01-12T03:17:20.508Z,1028.46
2024-01-12T03:18:24.845Z,1028.48
2024-01-12T03:19:28.869Z,1028.50
2024-01-12T03:20:32.929Z,1028.55
2024-01-12T03:21:37.061Z,1028.56
2024-01-12T03:22:41.242Z,1028.58
2024-01-12T03:23:45.493Z,1028.58
2024-01-12T03:24:49.601Z,1028.61
2024-01-12T03:25:53.684Z,1028.60
2024-01-12T03:26:57.686Z,1028.61
2024-01-12T03:28:01.922Z,1028.58
2024-01-12T03:29:06.105Z,1028.61
2024-01-12T03:30:10.410Z,1028.60
2024-01-12T03:31:16.239Z,1028.59
2024-01-12T03:32:18.615Z,1028.58
2024-01-12T03:33:22.820Z,1028.57
2024-01-12T03:34:26.838Z,1028.59
2024-01-12T03:35:31.020Z,1028.58
2024-01-12T03:36:35.066Z,1028.57
2024-01-12T03:37:39.256Z,1028.59
2024-01-12T03:38:43.507Z,1028.59
2024-01-12T03:39:47.613Z,1028.59
2024-01-12T03:40:51.777Z,1028.61
2024-01-12T03:41:56.042Z,1028.61
2024-01-12T03:43:00.112Z,1028.62
2024-01-12T03:44:04.138Z,1028.63
2024-01-12T03:45:08.436Z,1028.63
2024-01-12T03:46:12.483Z,1028.63
2024-01-12T03:47:16.648Z,1028.60
2024-01-12T03:48:20.933Z,1028.56
2024-01-12T03:49:25.219Z,1028.53
2024-01-12T03:50:29.087Z,1028.49
2024-01-12T03:51:33.346Z,1028.42
2024-01-12T03:52:37.452Z,1028.37
2024-01-12T03:53:41.803Z,1028.31
2024-01-12T03:54:45.909Z,1028.28
2024-01-12T03:55:50.045Z,1028.26
2024-01-12T03:56:54.128Z,1028.23
2024-01-12T03:57:58.254Z,1028.22
2024-01-12T03:59:02.476Z,1028.22
2024-01-12T04:00:12.658Z,1028.20
2024-01-12T04:01:15.398Z,1028.21
2024-01-12T04:02:19.656Z,1028.23
2024-01-12T04:03:23.507Z,1028.26
2024-01-12T04:04:27.720Z,1028.28
2024-01-12T04:05:31.995Z,1028.29
2024-01-12T04:06:36.271Z,1028.30
2024-01-12T04:07:40.345Z,1028.32
2024-01-12T04:08:44.585Z,1028.34
2024-01-12T04:09:48.709Z,1028.33
2024-01-12T04:10:52.825Z,1028.30
2024-01-12T04:11:56.990Z,1028.27
2024-01-12T04:13:01.143Z,1028.25
2024-01-12T04:14:05.332Z,1028.23
2024-01-12T04:15:09.487Z,1028.24
2024-01-12T04:16:13.458Z,1028.21
2024-01-12T04:17:17.862Z,1028.20
2024-01-12T04:18:25.020Z,1028.17
2024-01-12T04:19:27.953Z,1028.15
2024-01-12T04:20:32.190Z,1028.18
2024-01-12T04:21:36.342Z,1028.21
2024-01-12T04:22:46.399Z,1028.22
2024-01-12T04:23:48.970Z,1028.22
2024-01-12T04:24:53.306Z,1028.21
2024-01-12T04:26:03.505Z,1028.16
2024-01-12T04:27:06.319Z,1028.15
2024-01-12T04:28:10.225Z,1028.15
2024-01-12T04:29:14.539Z,1028.16
2024-01-12T04:30:18.534Z,1028.14
2024-01-12T04:31:22.777Z,1028.13
2024-01-12T04:32:26.890Z,1028.12
2024-01-12T04:33:31.093Z,1028.12
2024-01-12T04:34:35.206Z,1028.13
2024-01-12T04:35:39.420Z,1028.15
2024-01-12T04:36:43.616Z,1028.19
2024-01-12T04:37:47.791Z,1028.20
2024-01-12T04:38:52.069Z,1028.17
2024-01-12T04:39:56.103Z,1028.12
2024-01-12T04:41:00.274Z,1028.08
2024-01-12T04:42:04.542Z,1028.03
2024-01-12T04:43:08.589Z,1027.99
2024-01-12T04:44:12.754Z,1027.94
2024-01-12T04:45:16.894Z,1027.95
2024-01-12T04:46:21.032Z,1027.94
2024-01-12T04:47:25.278Z,1027.92
2024-01-12T04:48:29.502Z,1027.92
2024-01-12T04:49:33.558Z,1027.92
2024-01-12T04:50:37.608Z,1027.91
2024-01-12T04:51:41.872Z,1027.90
2024-01-12T04:52:46.022Z,1027.88
2024-01-12T04:53:50.384Z,1027.88
2024-01-12T04:54:54.374Z,1027.85
2024-01-12T04:55:58.583Z,1027.85
2024-01-12T04:57:02.903Z,1027.87
2024-01-12T04:58:06.864Z,1027.90
2024-01-12T04:59:11.017Z,1027.90
2024-01-12T05:00:15.185Z,1027.95
2024-01-12T05:01:19.419Z,1027.95
2024-01-12T05:02:23.687Z,1027.94
2024-01-12T05:03:27.590Z,1027.91
2024-01-12T05:04:31.852Z,1027.88
2024-01-12T05:05:36.166Z,1027.83
2024-01-12T05:06:40.223Z,1027.82
2024-01-12T05:07:44.209Z,1027.80
2024-01-12T05:08:48.369Z,1027.79
2024-01-12T05:09:52.592Z,1027.82
2024-01-12T05:10:56.684Z,1027.82
2024-01-12T05:12:00.974Z,1027.82
2024-01-12T05:13:05.039Z,1027.80
2024-01-12T05:14:09.215Z,1027.76
2024-01-12T05:15:13.397Z,1027.72
2024-01-12T05:16:17.518Z,1027.74
2024-01-12T05:17:21.760Z,1027.76
2024-01-12T05:18:26.012Z,1027.78
2024-01-12T05:19:30.155Z,1027.84
2024-01-12T05:20:34.245Z,1027.85
2024-01-12T05:21:38.381Z,1027.83
2024-01-12T05:22:42.416Z,1027.77
2024-01-12T05:23:46.550Z,1027.80
2024-01-12T05:24:50.717Z,1027.74
2024-01-12T05:25:54.765Z,1027.72
2024-01-12T05:26:59.103Z,1027.70
2024-01-12T05:28:03.124Z,1027.68
2024-01-12T05:29:07.410Z,1027.68
2024-01-12T05:30:11.840Z,1027.71
2024-01-12T05:31:15.958Z,1027.73
2024-01-12T05:32:19.917Z,1027.76
2024-01-12T05:33:24.055Z,1027.76
2024-01-12T05:34:28.322Z,1027.75
2024-01-12T05:35:32.244Z,1027.73
2024-01-12T05:36:36.350Z,1027.72
2024-01-12T05:37:40.638Z,1027.71
2024-01-12T05:38:44.808Z,1027.69
2024-01-12T05:39:48.782Z,1027.68
2024-01-12T05:40:52.984Z,1027.65
2024-01-12T05:41:57.328Z,1027.63
2024-01-12T05:43:01.312Z,1027.62
2024-01-12T05:44:05.387Z,1027.61
2024-01-12T05:45:09.619Z,1027.61
2024-01-12T05:46:13.709Z,1027.61
2024-01-12T05:47:17.983Z,1027.59
2024-01-12T05:48:22.288Z,1027.61
2024-01-12T05:49:27.323Z,1027.60
2024-01-12T05:50:31.095Z,1027.62
2024-01-12T05:51:35.268Z,1027.63
2024-01-12T05:52:39.376Z,1027.62
2024-01-12T05:53:44.828Z,1027.62
2024-01-12T05:54:47.737Z,1027.63
2024-01-12T05:55:51.954Z,1027.62
2024-01-12T05:56:56.019Z,1027.63
2024-01-12T05:58:00.247Z,1027.60
2024-01-12T05:59:04.409Z,1027.61
2024-01-12T06:00:08.617Z,1027.63
2024-01-12T06:01:13.395Z,1027.62
2024-01-12T06:02:16.824Z,1027.60
2024-01-12T06:03:21.030Z,1027.58
2024-01-12T06:04:25.337Z,1027.59
2024-01-12T06:05:29.340Z,1027.57
2024-01-12T06:06:33.561Z,1027.58
2024-01-12T06:07:37.650Z,1027.59
2024-01-12T06:08:41.817Z,1027.57
2024-01-12T06:09:45.967Z,1027.58
2024-01-12T06:10:50.247Z,1027.60
2024-01-12T06:11:54.339Z,1027.61
2024-01-12T06:12:58.550Z,1027.63
2024-01-12T06:14:02.627Z,1027.62
2024-01-12T06:15:06.862Z,1027.61
2024-01-12T06:16:10.840Z,1027.58
2024-01-12T06:17:15.422Z,1027.59
2024-01-12T06:18:19.544Z,1027.55
2024-01-12T06:19:23.596Z,1027.53
2024-01-12T06:20:27.693Z,1027.49
2024-01-12T06:21:31.811Z,1027.46
2024-01-12T06:22:36.904Z,1027.44
2024-01-12T06:23:40.614Z,1027.38
2024-01-12T06:24:44.668Z,1027.35
2024-01-12T06:25:48.939Z,1027.33
2024-01-12T06:26:53.155Z,1027.33
2024-01-12T06:27:57.270Z,1027.31
2024-01-12T06:29:01.553Z,1027.28
2024-01-12T06:30:05.934Z,1027.26
2024-01-12T06:31:09.984Z,1027.27
2024-01-12T06:32:14.407Z,1027.28
2024-01-12T06:33:18.242Z,1027.30
2024-01-12T06:34:22.279Z,1027.32
2024-01-12T06:35:26.516Z,1027.29
2024-01-12T06:36:30.510Z,1027.28
2024-01-12T06:37:34.718Z,1027.25
2024-01-12T06:38:38.941Z,1027.27
2024-01-12T06:39:43.132Z,1027.25
2024-01-12T06:40:47.242Z,1027.28
2024-01-12T06:41:51.379Z,1027.31
2024-01-12T06:42:55.515Z,1027.28
2024-01-12T06:43:59.666Z,1027.25
2024-01-12T06:45:03.864Z,1027.22
2024-01-12T06:46:07.948Z,1027.20
2024-01-12T06:47:12.111Z,1027.20
2024-01-12T06:48:16.293Z,1027.22
2024-01-12T06:49:20.473Z,1027.15
2024-01-12T06:50:24.818Z,1027.12
2024-01-12T06:51:28.832Z,1027.07
2024-01-12T06:52:32.995Z,1027.00
2024-01-12T06:53:37.058Z,1026.95
2024-01-12T06:54:41.240Z,1026.92
2024-01-12T06:55:45.383Z,1026.91
2024-01-12T06:56:49.563Z,1026.90
2024-01-12T06:57:53.593Z,1026.92
2024-01-12T06:58:57.702Z,1026.95
2024-01-12T07:00:02.012Z,1026.98
2024-01-12T07:01:06.074Z,1026.98
2024-01-12T07:02:10.245Z,1026.96
2024-01-12T07:03:14.626Z,1026.94
2024-01-12T07:04:18.662Z,1026.93
2024-01-12T07:05:22.785Z,1026.90
2024-01-12T07:06:27.054Z,1026.86
2024-01-12T07:07:31.066Z,1026.84
2024-01-12T07:08:35.322Z,1026.81
2024-01-12T07:09:39.484Z,1026.80
2024-01-12T07:10:43.607Z,1026.79
2024-01-12T07:11:47.860Z,1026.79
2024-01-12T07:12:52.057Z,1026.78
2024-01-12T07:13:56.153Z,1026.81
2024-01-12T07:15:00.596Z,1026.86
2024-01-12T07:16:04.522Z,1026.87
2024-01-12T07:17:08.626Z,1026.91
2024-01-12T07:18:12.905Z,1026.91
2024-01-12T07:19:17.109Z,1026.93
2024-01-12T07:20:21.195Z,1026.91
2024-01-12T07:21:25.213Z,1026.90
2024-01-12T07:22:29.342Z,1026.89
2024-01-12T07:23:33.518Z,1026.86
2024-01-12T07:24:37.719Z,1026.85
2024-01-12T07:25:41.809Z,1026.82
2024-01-12T07:26:45.932Z,1026.78
2024-01-12T07:27:49.991Z,1026.79
2024-01-12T07:28:54.120Z,1026.80
2024-01-12T07:29:58.597Z,1026.79
2024-01-12T07:31:02.538Z,1026.78
2024-01-12T07:32:06.591Z,1026.82
2024-01-12T07:33:11.012Z,1026.84
2024-01-12T07:34:15.099Z,1026.85
2024-01-12T07:35:19.157Z,1026.88
2024-01-12T07:36:23.195Z,1026.87
2024-01-12T07:37:27.345Z,1026.86
2024-01-12T07:38:31.586Z,1026.85
2024-01-12T07:39:35.752Z,1026.84
2024-01-12T07:40:39.934Z,1026.82
2024-01-12T07:41:43.997Z,1026.81
2024-01-12T07:42:54.159Z,1026.84
2024-01-12T07:43:56.885Z,1026.80
2024-01-12T07:45:01.157Z,1026.83
2024-01-12T07:46:06.478Z,1026.85
2024-01-12T07:47:09.344Z,1026.87
2024-01-12T07:48:13.517Z,1026.88
2024-01-12T07:49:17.571Z,1026.88
2024-01-12T07:50:21.741Z,1026.89
2024-01-12T07:51:25.778Z,1026.88
2024-01-12T07:52:29.981Z,1026.88
2024-01-12T07:53:34.197Z,1026.86
2024-01-12T07:54:38.333Z,1026.87
2024-01-12T07:55:42.608Z,1026.87
2024-01-12T07:56:46.599Z,1026.91
2024-01-12T07:57:50.696Z,1026.94
2024-01-12T07:58:55.846Z,1027.00
2024-01-12T08:00:00.694Z,1027.02
2024-01-12T08:01:04.238Z,1026.99
2024-01-12T08:02:08.530Z,1027.00
2024-01-12T08:03:12.630Z,1027.00
2024-01-12T08:04:16.834Z,1026.97
2024-01-12T08:05:20.881Z,1026.95
2024-01-12T08:06:25.024Z,1026.93
2024-01-12T08:07:29.199Z,1026.90
2024-01-12T08:08:33.360Z,1026.91
2024-01-12T08:09:37.477Z,1026.89
2024-01-12T08:10:41.529Z,1026.87
2024-01-12T08:11:45.840Z,1026.87
2024-01-12T08:12:55.909Z,1026.78
2024-01-12T08:13:58.537Z,1026.73
2024-01-12T08:15:02.835Z,1026.71
2024-01-12T08:16:06.965Z,1026.75
2024-01-12T08:17:11.249Z,1026.75
2024-01-12T08:18:15.567Z,1026.70
2024-01-12T08:19:19.556Z,1026.69
2024-01-12T08:20:23.528Z,1026.65
2024-01-12T08:21:27.995Z,1026.66
2024-01-12T08:22:31.867Z,1026.67
2024-01-12T08:23:36.069Z,1026.68
2024-01-12T08:26:07.179Z,1026.64
2024-01-12T08:27:11.246Z,1026.65
2024-01-12T08:28:15.416Z,1026.66
2024-01-12T08:29:19.517Z,1026.64
2024-01-12T08:30:23.735Z,1026.65
2024-01-12T08:31:27.820Z,1026.62
2024-01-12T08:32:31.894Z,1026.62
2024-01-12T08:33:36.127Z,1026.63
2024-01-12T08:34:40.458Z,1026.64
2024-01-12T08:35:44.438Z,1026.63
2024-01-12T08:36:48.679Z,1026.65
2024-01-12T08:37:52.837Z,1026.69
2024-01-12T08:38:57.044Z,1026.71
2024-01-12T08:40:00.991Z,1026.73
2024-01-12T08:41:05.094Z,1026.71
2024-01-12T08:42:09.386Z,1026.74
2024-01-12T08:43:13.630Z,1026.76
2024-01-12T08:44:17.627Z,1026.76
2024-01-12T08:45:21.814Z,1026.80
2024-01-12T08:46:25.871Z,1026.78
2024-01-12T08:47:30.172Z,1026.77
2024-01-12T08:48:34.503Z,1026.75
2024-01-12T08:49:38.291Z,1026.74
2024-01-12T08:50:42.621Z,1026.72
2024-01-12T08:51:46.577Z,1026.73
2024-01-12T08:52:50.660Z,1026.71
2024-01-12T08:53:54.880Z,1026.71
2024-01-12T08:54:58.998Z,1026.67
2024-01-12T08:56:03.064Z,1026.67
2024-01-12T08:57:07.260Z,1026.65
2024-01-12T08:58:11.280Z,1026.69
2024-01-12T08:59:15.527Z,1026.71
2024-01-12T09:00:19.792Z,1026.74
2024-01-12T09:01:23.932Z,1026.75
2024-01-12T09:02:28.161Z,1026.77
2024-01-12T09:03:32.289Z,1026.78
2024-01-12T09:04:37.502Z,1026.79
2024-01-12T09:05:41.333Z,1026.79
2024-01-12T09:06:45.336Z,1026.74
2024-01-12T09:07:49.498Z,1026.74
2024-01-12T09:08:53.633Z,1026.72
2024-01-12T09:09:57.760Z,1026.71
2024-01-12T09:11:01.791Z,1026.70
2024-01-12T09:12:06.117Z,1026.69
2024-01-12T09:13:09.996Z,1026.71
2024-01-12T09:14:14.143Z,1026.70
2024-01-12T09:15:18.320Z,1026.69
2024-01-12T09:16:22.639Z,1026.67
2024-01-12T09:17:26.777Z,1026.65
2024-01-12T09:18:30.920Z,1026.65
2024-01-12T09:19:36.024Z,1026.65
2024-01-12T09:20:39.702Z,1026.66
2024-01-12T09:21:43.914Z,1026.64
2024-01-12T09:22:48.116Z,1026.63
2024-01-12T09:23:52.121Z,1026.65
2024-01-12T09:24:56.305Z,1026.67
2024-01-12T09:26:00.617Z,1026.66
2024-01-12T09:27:05.755Z,1026.65
2024-01-12T09:28:09.488Z,1026.66
2024-01-12T09:29:13.579Z,1026.65
2024-01-12T09:30:17.803Z,1026.61
2024-01-12T09:31:21.808Z,1026.64
2024-01-12T09:32:25.884Z,1026.62
2024-01-12T09:33:30.339Z,1026.61
2024-01-12T09:34:34.401Z,1026.63
2024-01-12T09:35:38.285Z,1026.64
2024-01-12T09:36:42.573Z,1026.61
2024-01-12T09:37:46.787Z,1026.62
2024-01-12T09:38:50.843Z,1026.62
2024-01-12T09:39:55.024Z,1026.66
2024-01-12T09:40:59.028Z,1026.63
2024-01-12T09:42:06.349Z,1026.59
2024-01-12T09:43:09.423Z,1026.59
2024-01-12T09:44:13.666Z,1026.61
2024-01-12T09:45:22.790Z,1026.67
2024-01-12T09:46:22.611Z,1026.67
2024-01-12T09:47:26.905Z,1026.66
2024-01-12T09:48:31.176Z,1026.66
2024-01-12T09:49:35.116Z,1026.64
2024-01-12T09:50:39.423Z,1026.62
2024-01-12T09:51:43.541Z,1026.58
2024-01-12T09:52:47.590Z,1026.56
2024-01-12T09:53:51.866Z,1026.54
2024-01-12T09:54:56.012Z,1026.47
2024-01-12T09:56:05.796Z,1026.45
2024-01-12T09:57:04.545Z,1026.47
2024-01-12T09:58:08.691Z,1026.50
2024-01-12T09:59:12.752Z,1026.55
2024-01-12T10:00:17.311Z,1026.59
2024-01-12T10:01:21.294Z,1026.65
2024-01-12T10:02:25.335Z,1026.67
2024-01-12T10:03:29.481Z,1026.69
2024-01-12T10:04:33.723Z,1026.63
2024-01-12T10:05:38.233Z,1026.58
2024-01-12T10:06:42.435Z,1026.52
2024-01-12T10:07:46.212Z,1026.51
2024-01-12T10:08:50.512Z,1026.52
2024-01-12T10:09:54.640Z,1026.54
2024-01-12T10:10:58.728Z,1026.55
2024-01-12T10:12:03.079Z,1026.55
2024-01-12T10:13:07.178Z,1026.55
2024-01-12T10:14:11.376Z,1026.57
2024-01-12T10:15:15.676Z,1026.60
2024-01-12T10:16:20.545Z,1026.62
2024-01-12T10:17:24.303Z,1026.65
2024-01-12T10:18:28.535Z,1026.66
2024-01-12T10:19:32.662Z,1026.64
2024-01-12T10:20:36.767Z,1026.67
2024-01-12T10:21:40.895Z,1026.68
2024-01-12T10:22:47.990Z,1026.74
2024-01-12T10:23:51.369Z,1026.79
2024-01-12T10:24:55.347Z,1026.79
2024-01-12T10:25:59.478Z,1026.79
2024-01-12T10:27:03.736Z,1026.74
2024-01-12T10:28:07.729Z,1026.66
2024-01-12T10:29:11.833Z,1026.61
2024-01-12T10:30:16.176Z,1026.59
2024-01-12T10:31:20.326Z,1026.60
2024-01-12T10:32:24.323Z,1026.62
2024-01-12T10:33:28.506Z,1026.64
2024-01-12T10:34:32.705Z,1026.64
2024-01-12T10:35:36.883Z,1026.63
2024-01-12T10:36:40.904Z,1026.61
2024-01-12T10:37:45.005Z,1026.57
2024-01-12T10:38:49.228Z,1026.54
2024-01-12T10:39:53.340Z,1026.52
2024-01-12T10:40:57.564Z,1026.48
2024-01-12T10:42:01.761Z,1026.50
2024-01-12T10:43:05.880Z,1026.50
2024-01-12T10:44:09.987Z,1026.52
2024-01-12T10:45:14.314Z,1026.54
2024-01-12T10:46:18.428Z,1026.57
2024-01-12T10:47:22.709Z,1026.60
2024-01-12T10:48:26.707Z,1026.64
2024-01-12T10:49:31.001Z,1026.67
2024-01-12T10:50:34.948Z,1026.65
2024-01-12T10:51:39.207Z,1026.62
2024-01-12T10:52:43.297Z,1026.55
2024-01-12T10:53:47.472Z,1026.50
2024-01-12T10:54:51.480Z,1026.47
2024-01-12T10:55:55.760Z,1026.41
2024-01-12T10:57:00.031Z,1026.38
2024-01-12T10:58:03.974Z,1026.35
2024-01-12T10:59:08.242Z,1026.28
2024-01-12T11:00:12.494Z,1026.24
2024-01-12T11:01:16.455Z,1026.20
2024-01-12T11:02:20.740Z,1026.17
2024-01-12T11:03:24.921Z,1026.20
2024-01-12T11:04:29.018Z,1026.22
2024-01-12T11:05:33.285Z,1026.29
2024-01-12T11:06:37.469Z,1026.28
2024-01-12T11:07:55.501Z,1026.29
2024-01-12T11:08:58.559Z,1026.27
2024-01-12T11:10:02.622Z,1026.25
2024-01-12T11:11:06.740Z,1026.24
2024-01-12T11:12:10.780Z,1026.23
2024-01-12T11:13:14.964Z,1026.21
2024-01-12T11:14:19.083Z,1026.13
2024-01-12T11:15:23.220Z,1026.09
2024-01-12T11:16:27.331Z,1026.07
2024-01-12T11:17:31.570Z,1025.99
2024-01-12T11:18:37.023Z,1025.95
2024-01-12T11:19:39.953Z,1025.92
2024-01-12T11:20:44.038Z,1025.87
2024-01-12T11:21:48.216Z,1025.85
2024-01-12T11:22:52.417Z,1025.84
2024-01-12T11:23:56.465Z,1025.84
2024-01-12T11:25:14.896Z,1025.85
2024-01-12T11:26:17.703Z,1025.90
2024-01-12T11:27:21.876Z,1025.90
2024-01-12T11:28:26.022Z,1025.86
2024-01-12T11:29:30.230Z,1025.85
2024-01-12T11:30:34.467Z,1025.86
2024-01-12T11:31:38.803Z,1025.76
2024-01-12T11:32:42.826Z,1025.71
2024-01-12T11:33:47.029Z,1025.66
2024-01-12T11:34:51.347Z,1025.63
2024-01-12T11:35:55.363Z,1025.55
2024-01-12T11:36:59.481Z,1025.44
2024-01-12T11:38:03.675Z,1025.33
2024-01-12T11:39:07.910Z,1025.32
2024-01-12T11:40:11.976Z,1025.29
2024-01-12T11:41:16.389Z,1025.31
2024-01-12T11:42:20.332Z,1025.36
2024-01-12T11:43:24.573Z,1025.34
2024-01-12T11:44:28.858Z,1025.34
2024-01-12T11:45:32.993Z,1025.33
2024-01-12T11:46:37.193Z,1025.28
2024-01-12T11:47:41.441Z,1025.24
2024-01-12T11:48:45.575Z,1025.18
2024-01-12T11:49:49.534Z,1025.18
2024-01-12T11:50:53.771Z,1025.17
2024-01-12T11:53:25.004Z,1025.09
2024-01-12T11:54:28.928Z,1025.04
2024-01-12T11:55:33.093Z,1024.99
2024-01-12T11:56:37.364Z,1024.96
2024-01-12T11:57:41.333Z,1024.93
2024-01-12T11:58:45.423Z,1024.92
2024-01-12T11:59:49.521Z,1024.85
2024-01-12T12:00:54.028Z,1024.80
2024-01-12T12:01:57.940Z,1024.74
2024-01-12T12:03:02.023Z,1024.71
2024-01-12T12:04:06.147Z,1024.64
2024-01-12T12:05:10.679Z,1024.62
2024-01-12T12:06:14.699Z,1024.54
2024-01-12T12:07:18.594Z,1024.51
2024-01-12T12:08:22.925Z,1024.51
2024-01-12T12:09:26.964Z,1024.48
2024-01-12T12:10:37.929Z,1024.45
2024-01-12T12:11:35.351Z,1024.43
2024-01-12T12:12:39.490Z,1024.41
2024-01-12T12:13:43.697Z,1024.33
2024-01-12T12:14:47.705Z,1024.28
2024-01-12T12:15:51.936Z,1024.22
2024-01-12T12:16:56.048Z,1024.17
2024-01-12T12:18:00.495Z,1024.14
2024-01-12T12:19:04.575Z,1024.19
2024-01-12T12:20:08.501Z,1024.15
2024-01-12T12:21:12.845Z,1024.17
2024-01-12T12:22:16.889Z,1024.20
2024-01-12T12:23:21.143Z,1024.18
2024-01-12T12:24:25.311Z,1024.18
2024-01-12T12:25:29.457Z,1024.16
2024-01-12T12:26:33.498Z,1024.16
2024-01-12T12:27:37.559Z,1024.15
2024-01-12T12:28:41.842Z,1024.12
2024-01-12T12:29:46.033Z,1024.11
2024-01-12T12:30:50.272Z,1024.12
2024-01-12T12:31:54.235Z,1024.14
2024-01-12T12:32:58.415Z,1024.15
2024-01-12T12:34:02.768Z,1024.19
2024-01-12T12:35:06.673Z,1024.19
2024-01-12T12:36:11.103Z,1024.17
2024-01-12T12:37:14.964Z,1024.11
2024-01-12T12:38:19.299Z,1023.99
2024-01-12T12:39:23.311Z,1023.91
2024-01-12T12:40:27.578Z,1023.96
2024-01-12T12:41:31.884Z,1024.02
2024-01-12T12:42:35.928Z,1024.07
2024-01-12T12:43:40.145Z,1024.11
2024-01-12T12:44:44.442Z,1024.11
2024-01-12T12:45:48.528Z,1024.09
2024-01-12T12:46:52.715Z,1024.02
2024-01-12T12:47:57.014Z,1023.94
2024-01-12T12:49:01.323Z,1023.91
2024-01-12T12:50:05.191Z,1023.92
2024-01-12T12:51:09.487Z,1023.95
2024-01-12T12:52:13.516Z,1023.96
2024-01-12T12:53:17.598Z,1023.91
2024-01-12T12:54:21.941Z,1023.89
2024-01-12T12:55:25.911Z,1023.89
2024-01-12T12:56:30.979Z,1023.89
2024-01-12T12:57:34.697Z,1023.86
2024-01-12T12:58:38.861Z,1023.85
2024-01-12T12:59:43.055Z,1023.79
2024-01-12T13:00:47.107Z,1023.78
2024-01-12T13:01:51.385Z,1023.73